Time;durP1;ratioP1;P1;durP2;ratioP2;P2;SDS_P1;SDS_P2;PMS_P1;PMS_P2;Temp;Humidity;BMP_temperature;BMP_pressure;BME280_temperature;BME280_humidity;BME280_pressure;Samples;Min_cycle;Max_cycle;Signal;HPM_P1;HPM_P2
2021/03/15 00:01:19;;;;;;;13.33;3.97;;;;;;;;;;6180394;23;20694;-89
2021/03/15 00:04:25;;;;;;;8.20;4.40;;;;;;;;;;6178578;23;20191;-88
2021/03/15 00:07:30;;;;;;;13.77;4.47;;;;;;;;;;6179387;23;20172;-87
2021/03/15 00:10:35;;;;;;;8.37;4.17;;;;;;;;;;6178409;23;20215;-87
2021/03/15 00:13:39;;;;;;;10.23;4.33;;;;;;;;;;6178269;23;20164;-87
2021/03/15 00:16:44;;;;;;;9.90;4.80;;;;;;;;;;6178813;23;20176;-88
2021/03/15 00:19:50;;;;;;;9.40;4.10;;;;;;;;;;6179144;23;20167;-87
2021/03/15 00:22:55;;;;;;;13.03;4.10;;;;;;;;;;6177646;23;20248;-91
2021/03/15 00:26:00;;;;;;;12.23;4.17;;;;;;;;;;6206736;23;20293;-89
2021/03/15 00:29:04;;;;;;;8.20;4.30;;;;;;;;;;6226247;23;20179;-88
2021/03/15 00:32:09;;;;;;;9.93;3.50;;;;;;;;;;6226125;23;20171;-90
2021/03/15 00:35:15;;;;;;;7.57;3.63;;;;;;;;;;6223612;23;20175;-88
2021/03/15 00:38:20;;;;;;;10.00;3.63;;;;;;;;;;6225397;23;20175;-88
2021/03/15 00:41:24;;;;;;;10.37;4.53;;;;;;;;;;6226477;23;20171;-90
2021/03/15 00:44:29;;;;;;;7.93;4.13;;;;;;;;;;6224445;23;20528;-88
2021/03/15 00:47:33;;;;;;;9.97;3.80;;;;;;;;;;6226900;23;20171;-88
2021/03/15 00:50:41;;;;;;;9.27;4.43;;;;;;;;;;6228411;23;20171;-89
2021/03/15 00:53:50;;;;;;;11.37;4.00;;;;;;;;;;6227360;23;20172;-89
2021/03/15 00:56:55;;;;;;;11.37;4.50;;;;;;;;;;6226779;23;20214;-88
2021/03/15 01:00:01;;;;;;;10.50;4.50;;;;;;;;;;6225642;23;20204;-89
2021/03/15 01:03:21;;;;;;;10.10;4.60;;;;;;;;;;6226580;23;20238;-87
2021/03/15 01:06:32;;;;;;;10.80;4.50;;;;;;;;;;6223077;22;20151;-89
2021/03/15 01:09:42;;;;;;;11.53;4.47;;;;;;;;;;6178898;23;20242;-90
2021/03/15 01:13:01;;;;;;;7.53;3.90;;;;;;;;;;6176824;23;20168;-87
2021/03/15 01:16:05;;;;;;;9.70;3.97;;;;;;;;;;6177755;23;20204;-88
2021/03/15 01:19:12;;;;;;;10.87;3.80;;;;;;;;;;6177677;23;20176;-88
2021/03/15 01:22:18;;;;;;;8.43;4.10;;;;;;;;;;6178565;23;20295;-88
2021/03/15 01:25:24;;;;;;;8.97;3.90;;;;;;;;;;6175726;23;20319;-87
2021/03/15 01:28:29;;;;;;;7.07;3.47;;;;;;;;;;6184455;22;20399;-88
2021/03/15 01:31:34;;;;;;;6.13;3.33;;;;;;;;;;6208149;23;20174;-89
2021/03/15 01:34:38;;;;;;;8.47;3.63;;;;;;;;;;6226133;23;20222;-88
2021/03/15 01:37:43;;;;;;;6.13;2.80;;;;;;;;;;6208236;23;20170;-87
2021/03/15 01:40:47;;;;;;;6.70;2.80;;;;;;;;;;6225351;23;20187;-88
2021/03/15 01:43:52;;;;;;;8.17;3.20;;;;;;;;;;6207037;23;20194;-89
2021/03/15 01:46:57;;;;;;;5.57;3.07;;;;;;;;;;6205283;23;20179;-88
2021/03/15 01:50:02;;;;;;;8.50;3.27;;;;;;;;;;6226478;23;20618;-88
2021/03/15 01:53:07;;;;;;;8.73;3.13;;;;;;;;;;6225547;23;20202;-88
2021/03/15 01:56:12;;;;;;;5.87;3.10;;;;;;;;;;6224670;23;20701;-88
2021/03/15 01:59:17;;;;;;;5.47;2.73;;;;;;;;;;6226076;23;20240;-88
2021/03/15 02:02:21;;;;;;;6.40;3.27;;;;;;;;;;6227469;23;20166;-88
2021/03/15 02:05:27;;;;;;;6.13;2.97;;;;;;;;;;6229854;23;20195;-89
2021/03/15 02:08:38;;;;;;;6.57;3.23;;;;;;;;;;6192783;23;20171;-91
2021/03/15 02:15:39;;;;;;;8.17;3.07;;;;;;;;;;6226688;23;20183;-88
2021/03/15 02:18:52;;;;;;;7.70;3.37;;;;;;;;;;6225965;23;20195;-90
2021/03/15 02:22:15;;;;;;;7.53;3.27;;;;;;;;;;6227552;23;20622;-87
2021/03/15 02:25:38;;;;;;;8.13;3.90;;;;;;;;;;6208603;23;20190;-87
2021/03/15 02:29:09;;;;;;;8.00;3.40;;;;;;;;;;6101174;23;20266;-88
2021/03/15 02:32:41;;;;;;;6.17;3.20;;;;;;;;;;6207986;23;20194;-89
2021/03/15 02:35:51;;;;;;;6.67;3.40;;;;;;;;;;6209529;23;20191;-87
2021/03/15 02:38:56;;;;;;;5.67;3.47;;;;;;;;;;6227379;23;20174;-87
2021/03/15 02:42:03;;;;;;;7.40;3.50;;;;;;;;;;6209359;23;20170;-90
2021/03/15 02:45:15;;;;;;;6.40;3.23;;;;;;;;;;6226165;23;20210;-88
2021/03/15 02:48:21;;;;;;;8.47;3.47;;;;;;;;;;6225583;23;20175;-88
2021/03/15 02:51:27;;;;;;;6.83;3.60;;;;;;;;;;6226278;23;20214;-89
2021/03/15 02:58:14;;;;;;;8.63;4.23;;;;;;;;;;6107650;23;20218;-88
2021/03/15 03:01:19;;;;;;;6.70;4.03;;;;;;;;;;6106753;23;20173;-89
2021/03/15 03:04:24;;;;;;;6.67;3.93;;;;;;;;;;6107423;23;20240;-91
2021/03/15 03:07:30;;;;;;;8.93;3.90;;;;;;;;;;6104356;23;20618;-89
2021/03/15 03:10:35;;;;;;;7.57;3.97;;;;;;;;;;6103500;23;20170;-89
2021/03/15 03:13:39;;;;;;;8.73;4.03;;;;;;;;;;6103461;23;20195;-88
2021/03/15 03:16:43;;;;;;;6.77;4.13;;;;;;;;;;6102807;23;20170;-87
2021/03/15 03:19:48;;;;;;;8.47;4.67;;;;;;;;;;6103360;23;20297;-88
2021/03/15 03:22:55;;;;;;;6.73;4.20;;;;;;;;;;6103526;23;20247;-89
2021/03/15 03:26:00;;;;;;;8.90;4.27;;;;;;;;;;6101299;23;20221;-89
2021/03/15 03:29:05;;;;;;;9.23;4.77;;;;;;;;;;6103469;23;20165;-88
2021/03/15 03:32:11;;;;;;;7.23;4.10;;;;;;;;;;6102783;23;20222;-88
2021/03/15 03:35:16;;;;;;;7.63;4.43;;;;;;;;;;6103023;23;20195;-89
2021/03/15 03:38:21;;;;;;;7.33;4.43;;;;;;;;;;6104647;23;20194;-88
2021/03/15 03:41:25;;;;;;;8.17;5.00;;;;;;;;;;6105954;23;20245;-89
2021/03/15 03:44:30;;;;;;;11.27;5.87;;;;;;;;;;6107151;23;20198;-90
2021/03/15 03:47:34;;;;;;;9.63;5.63;;;;;;;;;;6107944;23;20173;-88
2021/03/15 03:50:40;;;;;;;9.50;5.10;;;;;;;;;;6108197;23;20670;-88
2021/03/15 03:53:48;;;;;;;9.20;5.30;;;;;;;;;;6090425;23;20599;-88
2021/03/15 03:56:54;;;;;;;11.33;5.53;;;;;;;;;;6106686;23;20270;-88
2021/03/15 04:00:00;;;;;;;11.10;5.53;;;;;;;;;;6089573;23;20198;-89
2021/03/15 04:03:08;;;;;;;11.90;5.80;;;;;;;;;;6090271;23;20564;-87
2021/03/15 04:06:14;;;;;;;10.73;5.77;;;;;;;;;;6089115;23;20173;-89
2021/03/15 04:09:23;;;;;;;9.63;5.47;;;;;;;;;;6087995;23;20218;-88
2021/03/15 04:12:28;;;;;;;10.10;5.90;;;;;;;;;;6090242;23;20253;-87
2021/03/15 04:15:33;;;;;;;13.60;6.60;;;;;;;;;;6087532;23;20218;-87
2021/03/15 04:18:38;;;;;;;13.13;6.20;;;;;;;;;;6088678;23;20165;-88
2021/03/15 04:21:44;;;;;;;12.37;6.53;;;;;;;;;;6104583;23;20173;-86
2021/03/15 04:24:50;;;;;;;14.47;7.47;;;;;;;;;;6072269;23;20210;-90
2021/03/15 04:27:55;;;;;;;12.77;7.33;;;;;;;;;;6088520;23;20249;-89
2021/03/15 04:31:00;;;;;;;12.23;6.97;;;;;;;;;;6089053;23;20174;-90
2021/03/15 04:34:05;;;;;;;17.30;7.87;;;;;;;;;;6089927;23;20491;-89
2021/03/15 04:37:10;;;;;;;15.07;7.73;;;;;;;;;;6087121;23;20633;-88
2021/03/15 04:40:16;;;;;;;14.13;7.53;;;;;;;;;;6086464;23;20174;-89
2021/03/15 04:43:21;;;;;;;13.27;7.67;;;;;;;;;;6104168;23;20567;-87
2021/03/15 04:46:26;;;;;;;15.23;8.40;;;;;;;;;;6088048;23;20169;-88
2021/03/15 04:49:32;;;;;;;16.23;8.53;;;;;;;;;;6070113;23;20197;-89
2021/03/15 04:52:38;;;;;;;14.80;7.97;;;;;;;;;;6104482;23;20191;-89
2021/03/15 04:55:43;;;;;;;15.57;8.10;;;;;;;;;;6087543;23;20233;-87
2021/03/15 04:58:50;;;;;;;15.53;7.70;;;;;;;;;;6104879;23;20177;-88
2021/03/15 05:02:05;;;;;;;14.90;7.90;;;;;;;;;;6086186;23;20177;-89
2021/03/15 05:05:11;;;;;;;16.30;8.33;;;;;;;;;;6086514;23;20520;-90
2021/03/15 05:08:18;;;;;;;16.60;8.07;;;;;;;;;;6085873;23;20282;-88
2021/03/15 05:11:26;;;;;;;16.50;8.30;;;;;;;;;;6086738;23;20267;-88
2021/03/15 05:14:32;;;;;;;15.10;8.30;;;;;;;;;;6087995;23;20170;-88
2021/03/15 05:17:38;;;;;;;12.97;7.50;;;;;;;;;;6087659;23;20173;-88
2021/03/15 05:20:42;;;;;;;16.20;8.30;;;;;;;;;;6087126;23;20241;-88
2021/03/15 05:23:47;;;;;;;17.37;8.67;;;;;;;;;;6086873;23;20177;-88
2021/03/15 05:26:52;;;;;;;19.57;8.47;;;;;;;;;;6087353;23;20194;-88
2021/03/15 05:29:58;;;;;;;14.80;8.17;;;;;;;;;;6071270;23;20202;-87
2021/03/15 05:33:04;;;;;;;18.53;8.50;;;;;;;;;;6086689;23;20183;-88
2021/03/15 05:36:10;;;;;;;17.47;8.47;;;;;;;;;;6088316;23;20158;-89
2021/03/15 05:39:15;;;;;;;17.20;8.33;;;;;;;;;;6090580;23;20170;-89
2021/03/15 05:42:25;;;;;;;19.23;8.77;;;;;;;;;;6104968;23;20496;-88
2021/03/15 05:45:42;;;;;;;18.20;8.17;;;;;;;;;;6086841;23;20193;-88
2021/03/15 05:49:10;;;;;;;18.53;8.33;;;;;;;;;;6088145;23;20173;-88
2021/03/15 05:52:19;;;;;;;13.83;7.40;;;;;;;;;;6104285;23;20178;-88
2021/03/15 05:55:41;;;;;;;15.63;8.73;;;;;;;;;;6087252;23;20259;-88
2021/03/15 05:59:01;;;;;;;17.33;7.77;;;;;;;;;;6086329;23;20187;-89
2021/03/15 06:02:13;;;;;;;17.93;8.30;;;;;;;;;;6087658;23;20175;-89
2021/03/15 06:05:19;;;;;;;18.47;8.17;;;;;;;;;;6087082;23;20225;-88
2021/03/15 06:08:24;;;;;;;16.43;8.00;;;;;;;;;;6089210;23;20215;-88
2021/03/15 06:11:32;;;;;;;13.57;7.70;;;;;;;;;;6091649;23;20202;-89
2021/03/15 06:14:39;;;;;;;19.03;7.30;;;;;;;;;;6091899;23;20174;-87
2021/03/15 06:17:45;;;;;;;12.87;7.07;;;;;;;;;;6088566;23;20170;-90
2021/03/15 06:20:50;;;;;;;12.53;6.23;;;;;;;;;;6087639;23;20274;-89
2021/03/15 06:23:58;;;;;;;12.77;6.30;;;;;;;;;;6089110;23;20222;-88
2021/03/15 06:27:04;;;;;;;11.90;6.43;;;;;;;;;;6089933;23;20153;-88
2021/03/15 06:30:11;;;;;;;11.87;6.80;;;;;;;;;;6088768;23;20181;-88
2021/03/15 06:33:17;;;;;;;14.40;6.77;;;;;;;;;;6088020;23;20170;-87
2021/03/15 11:18:06;;;;;;;9.80;2.75;;;;;;;;;;6125866;22;20837;-89
2021/03/15 12:16:47;;;;;;;8.23;2.90;;;;;;;;;;6156229;22;20404;-89
2021/03/15 12:19:52;;;;;;;9.30;3.60;;;;;;;;;;6195826;23;20220;-90
2021/03/15 12:23:15;;;;;;;20.67;7.93;;;;;;;;;;6202575;23;20219;-89
2021/03/15 12:26:20;;;;;;;10.07;3.70;;;;;;;;;;6200619;23;20259;-90
2021/03/15 12:29:38;;;;;;;8.50;3.37;;;;;;;;;;6199313;23;20168;-89
2021/03/15 12:32:46;;;;;;;37.67;8.03;;;;;;;;;;6201314;23;20167;-90
2021/03/15 12:35:51;;;;;;;7.53;2.90;;;;;;;;;;6199480;23;20251;-89
2021/03/15 12:38:59;;;;;;;6.23;2.43;;;;;;;;;;6203284;23;20196;-90
2021/03/15 12:42:07;;;;;;;4.87;2.00;;;;;;;;;;6200656;23;20196;-89
2021/03/15 12:45:20;;;;;;;7.93;1.80;;;;;;;;;;6197379;23;20242;-89
2021/03/15 12:48:29;;;;;;;4.83;1.70;;;;;;;;;;6195921;23;20167;-89
2021/03/15 12:51:34;;;;;;;4.60;1.50;;;;;;;;;;6196238;23;20188;-88
2021/03/15 12:54:39;;;;;;;4.07;1.60;;;;;;;;;;6181282;23;20740;-90
2021/03/15 12:57:44;;;;;;;5.37;1.50;;;;;;;;;;6197076;23;20679;-87
2021/03/15 13:00:50;;;;;;;3.93;1.40;;;;;;;;;;6195522;23;20624;-87
2021/03/15 13:04:04;;;;;;;5.47;1.77;;;;;;;;;;6194856;23;20184;-87
2021/03/15 19:12:28;;;;;;;9.70;3.87;;;;;;;;;;6209002;22;20219;-91
2021/03/15 19:15:32;;;;;;;6.17;2.30;;;;;;;;;;6224921;23;20202;-91
2021/03/15 19:18:37;;;;;;;5.30;3.00;;;;;;;;;;6225639;23;20163;-91
2021/03/15 19:21:42;;;;;;;3.60;2.20;;;;;;;;;;6226126;23;20167;-87
2021/03/15 19:24:46;;;;;;;4.70;2.50;;;;;;;;;;6226315;23;20573;-89
2021/03/15 19:27:56;;;;;;;5.40;2.23;;;;;;;;;;6208447;23;20170;-90
2021/03/15 19:31:01;;;;;;;4.60;2.17;;;;;;;;;;6228230;23;20175;-88
2021/03/15 19:34:07;;;;;;;6.17;2.10;;;;;;;;;;6209490;23;20192;-89
2021/03/15 19:37:12;;;;;;;3.87;2.40;;;;;;;;;;6226159;23;20167;-89
2021/03/15 19:40:16;;;;;;;5.03;2.80;;;;;;;;;;6191286;23;20246;-87
2021/03/15 19:43:22;;;;;;;6.77;2.90;;;;;;;;;;6207866;23;20175;-91
2021/03/15 19:46:27;;;;;;;4.33;2.20;;;;;;;;;;6223728;23;20194;-88
2021/03/15 19:49:31;;;;;;;3.60;1.97;;;;;;;;;;6225776;23;20163;-88
2021/03/15 19:52:36;;;;;;;5.50;2.20;;;;;;;;;;6223019;23;20166;-90
2021/03/15 19:55:41;;;;;;;4.63;2.20;;;;;;;;;;6223988;22;20231;-89
2021/03/15 19:58:46;;;;;;;5.03;2.63;;;;;;;;;;6223967;23;20218;-90
2021/03/15 20:01:51;;;;;;;10.87;4.70;;;;;;;;;;6223808;23;20171;-89
2021/03/15 20:04:55;;;;;;;11.37;4.50;;;;;;;;;;6221945;23;20250;-88
2021/03/15 20:08:00;;;;;;;30.43;8.73;;;;;;;;;;6225319;23;20634;-88
2021/03/15 20:11:05;;;;;;;47.60;13.10;;;;;;;;;;6206729;23;20276;-89
2021/03/15 20:14:11;;;;;;;37.67;11.03;;;;;;;;;;6206912;23;20179;-89
2021/03/15 20:17:17;;;;;;;45.43;14.07;;;;;;;;;;6206299;23;20222;-89
2021/03/15 20:20:23;;;;;;;11.80;4.70;;;;;;;;;;6208459;23;20179;-89
2021/03/15 20:23:28;;;;;;;24.83;7.40;;;;;;;;;;6223803;23;20202;-87
2021/03/15 20:26:32;;;;;;;27.20;7.83;;;;;;;;;;6224648;23;20256;-90
2021/03/15 20:29:38;;;;;;;12.13;4.47;;;;;;;;;;6224870;23;20170;-88
2021/03/15 20:32:44;;;;;;;5.30;2.90;;;;;;;;;;6225251;23;20595;-88
2021/03/15 20:35:50;;;;;;;7.70;2.90;;;;;;;;;;6224790;23;20806;-89
2021/03/15 20:38:54;;;;;;;4.67;2.77;;;;;;;;;;6223433;23;20178;-88
2021/03/15 20:41:59;;;;;;;9.87;3.87;;;;;;;;;;6205959;23;20167;-88
2021/03/15 20:45:06;;;;;;;5.73;2.87;;;;;;;;;;6206744;23;20195;-90
2021/03/15 20:48:10;;;;;;;8.30;3.50;;;;;;;;;;6225517;23;20626;-89
2021/03/15 20:51:15;;;;;;;6.07;2.20;;;;;;;;;;6224696;23;20179;-89
2021/03/15 20:54:20;;;;;;;6.63;2.17;;;;;;;;;;6224481;23;20174;-90
2021/03/15 20:57:25;;;;;;;4.37;1.97;;;;;;;;;;6224634;23;20179;-89
2021/03/15 21:00:32;;;;;;;3.43;2.00;;;;;;;;;;6221998;23;20250;-87
2021/03/15 21:03:37;;;;;;;5.13;2.57;;;;;;;;;;6223652;23;20171;-89
2021/03/15 21:06:41;;;;;;;4.70;1.90;;;;;;;;;;6204801;23;20509;-88
2021/03/15 21:09:46;;;;;;;2.93;2.07;;;;;;;;;;6206940;23;20175;-88
2021/03/15 21:12:50;;;;;;;24.53;7.67;;;;;;;;;;6238845;23;20210;-88
2021/03/15 21:15:56;;;;;;;11.17;4.90;;;;;;;;;;6224274;23;20168;-88
2021/03/15 21:22:37;;;;;;;197.20;41.83;;;;;;;;;;6224805;23;20669;-90
2021/03/15 21:25:42;;;;;;;65.27;18.07;;;;;;;;;;6223263;23;20198;-90
2021/03/15 21:28:46;;;;;;;41.37;10.63;;;;;;;;;;6224206;23;20171;-88
2021/03/15 21:31:52;;;;;;;50.27;13.47;;;;;;;;;;6223738;23;20191;-89
2021/03/15 21:34:56;;;;;;;15.30;6.90;;;;;;;;;;6223766;23;20171;-91
2021/03/15 21:38:01;;;;;;;6.43;3.60;;;;;;;;;;6224308;23;20220;-89
2021/03/15 21:41:05;;;;;;;7.17;3.73;;;;;;;;;;6225448;23;20619;-89
2021/03/15 21:44:10;;;;;;;9.43;3.43;;;;;;;;;;6224943;23;20254;-90
2021/03/15 21:47:16;;;;;;;10.17;4.50;;;;;;;;;;6224000;23;20171;-89
2021/03/15 21:50:20;;;;;;;8.83;4.03;;;;;;;;;;6223550;23;20166;-88
2021/03/15 21:53:25;;;;;;;7.83;3.67;;;;;;;;;;6223305;23;20170;-88
2021/03/15 21:56:29;;;;;;;4.73;3.17;;;;;;;;;;6223183;23;20171;-88
2021/03/15 21:59:34;;;;;;;9.73;3.83;;;;;;;;;;6223649;23;20227;-90
2021/03/15 22:02:40;;;;;;;7.63;3.50;;;;;;;;;;6223940;23;20170;-89
2021/03/15 22:05:45;;;;;;;7.40;3.70;;;;;;;;;;6224794;23;20190;-89
2021/03/15 22:08:49;;;;;;;6.27;3.50;;;;;;;;;;6227211;23;20218;-88
2021/03/15 22:11:54;;;;;;;7.80;3.47;;;;;;;;;;6224392;23;20194;-88
2021/03/15 22:14:59;;;;;;;7.00;3.70;;;;;;;;;;6222682;23;20233;-89
2021/03/15 22:18:05;;;;;;;7.73;3.93;;;;;;;;;;6223384;23;20166;-91
2021/03/15 22:21:10;;;;;;;6.93;3.93;;;;;;;;;;6221902;23;20214;-90
2021/03/15 22:24:14;;;;;;;7.73;4.43;;;;;;;;;;6223799;23;20166;-89
2021/03/15 22:27:19;;;;;;;7.87;3.83;;;;;;;;;;6223463;23;20523;-89
2021/03/15 22:30:24;;;;;;;12.03;4.87;;;;;;;;;;6222126;23;20243;-89
2021/03/15 22:33:29;;;;;;;7.30;4.50;;;;;;;;;;6240633;23;20194;-87
2021/03/15 22:36:35;;;;;;;8.93;4.20;;;;;;;;;;6239806;23;20218;-89
2021/03/15 22:39:40;;;;;;;7.87;4.33;;;;;;;;;;6223588;23;20170;-88
2021/03/15 22:42:44;;;;;;;7.83;4.53;;;;;;;;;;6223533;23;20167;-90
2021/03/15 22:45:49;;;;;;;5.97;3.93;;;;;;;;;;6222742;23;20190;-89
2021/03/15 22:48:57;;;;;;;7.80;3.90;;;;;;;;;;6222769;23;20619;-89
2021/03/15 22:52:01;;;;;;;7.70;4.60;;;;;;;;;;6224063;23;20167;-89
2021/03/15 22:55:06;;;;;;;6.87;4.27;;;;;;;;;;6223186;23;20217;-90
2021/03/15 22:58:11;;;;;;;28.20;9.07;;;;;;;;;;6223331;23;20171;-89
2021/03/15 23:01:16;;;;;;;15.77;7.90;;;;;;;;;;6241462;23;20302;-89
2021/03/15 23:04:21;;;;;;;11.00;5.40;;;;;;;;;;6223184;23;20174;-91
2021/03/15 23:07:26;;;;;;;11.43;5.10;;;;;;;;;;6223542;23;20171;-90
2021/03/15 23:10:30;;;;;;;10.07;5.00;;;;;;;;;;6222639;23;20182;-90
2021/03/15 23:13:35;;;;;;;7.13;4.50;;;;;;;;;;6225042;23;20167;-90
2021/03/15 23:16:41;;;;;;;8.20;4.60;;;;;;;;;;6242522;23;20171;-92
2021/03/15 23:19:46;;;;;;;10.27;5.50;;;;;;;;;;6224646;23;20175;-91
2021/03/15 23:22:52;;;;;;;7.60;4.40;;;;;;;;;;6223600;23;20662;-90
2021/03/15 23:25:56;;;;;;;9.03;5.03;;;;;;;;;;6223872;23;20190;-90
2021/03/15 23:29:08;;;;;;;7.30;4.80;;;;;;;;;;6224063;23;20174;-88
2021/03/15 23:32:13;;;;;;;10.07;4.90;;;;;;;;;;6222882;23;20175;-89
2021/03/15 23:35:19;;;;;;;10.83;5.37;;;;;;;;;;6224572;23;20202;-89
2021/03/15 23:38:25;;;;;;;8.47;5.00;;;;;;;;;;6223080;23;20174;-89
2021/03/15 23:41:29;;;;;;;9.30;5.40;;;;;;;;;;6224208;23;20199;-90
2021/03/15 23:44:34;;;;;;;10.67;6.00;;;;;;;;;;6222858;23;20503;-89
2021/03/15 23:47:39;;;;;;;11.00;6.00;;;;;;;;;;6223871;23;20240;-90
2021/03/15 23:50:44;;;;;;;11.13;6.40;;;;;;;;;;6224766;23;20175;-89
2021/03/15 23:54:08;;;;;;;8.50;5.30;;;;;;;;;;6225593;23;20626;-88
2021/03/15 23:57:31;;;;;;;9.37;5.70;;;;;;;;;;6225926;23;20166;-88
